Time,TemperatureF,DewpointF,PressureIn,WindDirection,WindDirectionDegrees,WindSpeedMPH,WindSpeedGustMPH,Humidity,HourlyPrecipIn,Conditions,Clouds,dailyrainin,SolarRadiationWatts/m^2,SoftwareType,DateUTC
2013-03-15 00:02:00,77.0,34.0,-100.00,North,3,5.0,8.0,21,-99.99,,,0.00,0.000000,,2013-03-15 07:02:00,
2013-03-15 00:12:00,77.0,34.0,-100.00,North,3,5.0,8.0,21,-99.99,,,0.00,0.000000,,2013-03-15 07:12:00,
2013-03-15 00:22:00,77.0,34.0,-100.00,North,3,5.0,8.0,21,-99.99,,,0.00,0.000000,,2013-03-15 07:22:00,
2013-03-15 00:52:00,75.0,35.0,-100.00,North,352,0.0,8.0,23,0.00,,,0.00,0.000000,,2013-03-15 07:52:00,
2013-03-15 01:02:00,75.0,35.0,-100.00,North,352,0.0,8.0,23,0.00,,,0.00,0.000000,,2013-03-15 08:02:00,
2013-03-15 01:12:00,75.0,35.0,-100.00,North,352,0.0,8.0,23,0.00,,,0.00,0.000000,,2013-03-15 08:12:00,
2013-03-15 01:22:00,75.0,35.0,-100.00,North,352,0.0,8.0,23,0.00,,,0.00,0.000000,,2013-03-15 08:22:00,
2013-03-15 01:52:00,71.0,32.0,-100.00,North,352,4.0,6.0,24,0.00,,,0.00,0.000000,,2013-03-15 08:52:00,
2013-03-15 02:53:00,70.0,34.0,-100.00,North,7,3.0,6.0,27,0.00,,,0.00,0.000000,,2013-03-15 09:53:00,
2013-03-15 03:02:00,70.0,34.0,-100.00,North,7,3.0,6.0,27,0.00,,,0.00,0.000000,,2013-03-15 10:02:00,
2013-03-15 03:12:00,70.0,34.0,-100.00,North,7,3.0,6.0,27,0.00,,,0.00,0.000000,,2013-03-15 10:12:00,
2013-03-15 03:22:00,70.0,34.0,-100.00,North,7,3.0,6.0,27,0.00,,,0.00,0.000000,,2013-03-15 10:22:00,
2013-03-15 03:52:00,69.0,35.0,-100.00,North,353,1.0,5.0,28,0.00,,,0.00,0.000000,,2013-03-15 10:52:00,
2013-03-15 04:02:00,69.0,35.0,-100.00,North,353,1.0,5.0,28,0.00,,,0.00,0.000000,,2013-03-15 11:02:00,
2013-03-15 04:12:00,69.0,35.0,-100.00,North,353,1.0,5.0,28,0.00,,,0.00,0.000000,,2013-03-15 11:12:00,
2013-03-15 04:22:00,69.0,35.0,-100.00,North,353,1.0,5.0,28,0.00,,,0.00,0.000000,,2013-03-15 11:22:00,
2013-03-15 04:52:00,65.0,38.0,-100.00,NW,304,0.0,4.0,37,0.00,,,0.00,0.000000,,2013-03-15 11:52:00,
2013-03-15 05:02:00,65.0,38.0,-100.00,NW,304,0.0,4.0,37,0.00,,,0.00,0.000000,,2013-03-15 12:02:00,
2013-03-15 05:12:00,65.0,38.0,-100.00,NW,304,0.0,4.0,37,0.00,,,0.00,0.000000,,2013-03-15 12:12:00,
2013-03-15 05:22:00,65.0,38.0,-100.00,NW,304,0.0,4.0,37,0.00,,,0.00,0.000000,,2013-03-15 12:22:00,
2013-03-15 05:52:00,63.0,43.0,-100.00,NW,305,0.0,3.0,48,0.00,,,0.00,0.000000,,2013-03-15 12:52:00,
2013-03-15 06:02:00,63.0,43.0,-100.00,NW,305,0.0,3.0,48,0.00,,,0.00,0.000000,,2013-03-15 13:02:00,
2013-03-15 06:12:00,63.0,43.0,-100.00,NW,305,0.0,3.0,48,0.00,,,0.00,0.000000,,2013-03-15 13:12:00,
2013-03-15 06:21:00,63.0,43.0,-100.00,NW,305,0.0,3.0,48,0.00,,,0.00,0.000000,,2013-03-15 13:21:00,
2013-03-15 06:52:00,61.0,38.0,-100.00,NW,320,2.0,5.0,43,0.00,,,0.00,0.000000,,2013-03-15 13:52:00,
2013-03-15 07:02:00,61.0,38.0,-100.00,NW,320,2.0,5.0,43,0.00,,,0.00,0.000000,,2013-03-15 14:02:00,
2013-03-15 07:12:00,61.0,38.0,-100.00,NW,320,2.0,5.0,43,0.00,,,0.00,0.000000,,2013-03-15 14:12:00,
2013-03-15 07:22:00,61.0,38.0,-100.00,NW,320,2.0,5.0,43,0.00,,,0.00,0.000000,,2013-03-15 14:22:00,
2013-03-15 07:53:00,64.0,40.0,-100.00,NE,50,0.0,6.0,42,0.00,,,0.00,35.000000,,2013-03-15 14:53:00,
2013-03-15 08:02:00,64.0,40.0,-100.00,NE,50,0.0,6.0,42,0.00,,,0.00,35.000000,,2013-03-15 15:02:00,
2013-03-15 08:12:00,64.0,40.0,-100.00,NE,50,0.0,6.0,42,0.00,,,0.00,35.000000,,2013-03-15 15:12:00,
2013-03-15 08:21:00,64.0,40.0,-100.00,NE,50,0.0,6.0,42,0.00,,,0.00,35.000000,,2013-03-15 15:21:00,
2013-03-15 08:53:00,69.0,36.0,-100.00,NE,54,0.0,5.0,30,0.00,,,0.00,194.000000,,2013-03-15 15:53:00,
2013-03-15 09:02:00,69.0,36.0,-100.00,NE,54,0.0,5.0,30,0.00,,,0.00,194.000000,,2013-03-15 16:02:00,
2013-03-15 09:12:00,69.0,36.0,-100.00,NE,54,0.0,5.0,30,0.00,,,0.00,194.000000,,2013-03-15 16:12:00,
2013-03-15 09:22:00,69.0,36.0,-100.00,NE,54,0.0,5.0,30,0.00,,,0.00,194.000000,,2013-03-15 16:22:00,
2013-03-15 09:52:00,77.0,38.0,-100.00,WSW,255,0.0,2.0,25,0.00,,,0.00,458.000000,,2013-03-15 16:52:00,
2013-03-15 10:02:00,77.0,38.0,-100.00,WSW,255,0.0,2.0,25,0.00,,,0.00,458.000000,,2013-03-15 17:02:00,
2013-03-15 10:53:00,85.0,37.0,-100.00,WSW,249,0.0,3.0,18,0.00,,,0.00,708.000000,,2013-03-15 17:53:00,
2013-03-15 11:52:00,89.0,34.0,-100.00,WSW,249,2.0,5.0,14,0.00,,,0.00,929.000000,,2013-03-15 18:52:00,
2013-03-15 12:02:00,89.0,34.0,-100.00,WSW,249,2.0,5.0,14,0.00,,,0.00,929.000000,,2013-03-15 19:02:00,
2013-03-15 12:12:00,89.0,34.0,-100.00,WSW,249,2.0,5.0,14,0.00,,,0.00,929.000000,,2013-03-15 19:12:00,
2013-03-15 12:21:00,89.0,34.0,-100.00,WSW,249,2.0,5.0,14,0.00,,,0.00,929.000000,,2013-03-15 19:21:00,
2013-03-15 12:52:00,97.0,34.0,-100.00,North,351,0.0,5.0,11,0.00,,,-99.99,974.000000,,2013-03-15 19:52:00,
2013-03-15 13:21:00,97.0,34.0,-100.00,North,351,0.0,5.0,11,0.00,,,-99.99,974.000000,,2013-03-15 20:21:00,
2013-03-15 13:52:00,99.0,33.0,-100.00,WNW,299,0.0,4.0,10,0.00,,,0.00,1016.000000,,2013-03-15 20:52:00,
2013-03-15 14:02:00,99.0,33.0,-100.00,WNW,299,0.0,4.0,10,0.00,,,0.00,1016.000000,,2013-03-15 21:02:00,
2013-03-15 14:12:00,99.0,33.0,-100.00,WNW,299,0.0,4.0,10,0.00,,,0.00,1016.000000,,2013-03-15 21:12:00,
2013-03-15 14:22:00,99.0,33.0,-100.00,WNW,299,0.0,4.0,10,0.00,,,0.00,1016.000000,,2013-03-15 21:22:00,
2013-03-15 14:52:00,99.0,30.0,-100.00,SSE,161,3.0,9.0,9,0.00,,,0.00,1035.000000,,2013-03-15 21:52:00,
2013-03-15 15:03:00,99.0,30.0,-100.00,SSE,161,3.0,9.0,9,0.00,,,0.00,1035.000000,,2013-03-15 22:03:00,
2013-03-15 15:13:00,99.0,30.0,-100.00,SSE,161,3.0,9.0,9,0.00,,,0.00,1035.000000,,2013-03-15 22:13:00,
2013-03-15 15:22:00,99.0,30.0,-100.00,SSE,161,3.0,9.0,9,0.00,,,0.00,1035.000000,,2013-03-15 22:22:00,
2013-03-15 15:52:00,96.0,31.0,-100.00,South,179,6.0,13.0,10,0.00,,,0.00,696.000000,,2013-03-15 22:52:00,
2013-03-15 16:02:00,96.0,31.0,-100.00,South,179,6.0,13.0,10,0.00,,,0.00,696.000000,,2013-03-15 23:02:00,
2013-03-15 16:12:00,96.0,31.0,-100.00,South,179,6.0,13.0,10,0.00,,,0.00,696.000000,,2013-03-15 23:12:00,
2013-03-15 16:21:00,96.0,31.0,-100.00,South,179,6.0,13.0,10,0.00,,,0.00,696.000000,,2013-03-15 23:21:00,
2013-03-15 16:53:00,93.0,31.0,-100.00,South,183,8.0,12.0,11,0.00,,,0.00,472.000000,,2013-03-15 23:53:00,
2013-03-15 17:02:00,93.0,31.0,-100.00,South,183,8.0,12.0,11,0.00,,,0.00,472.000000,,2013-03-16 00:02:00,
2013-03-15 17:12:00,93.0,31.0,-100.00,South,183,8.0,12.0,11,0.00,,,0.00,472.000000,,2013-03-16 00:12:00,
2013-03-15 17:22:00,93.0,31.0,-100.00,South,183,8.0,12.0,11,0.00,,,0.00,472.000000,,2013-03-16 00:22:00,
2013-03-15 17:52:00,93.0,31.0,-100.00,SSW,206,5.0,13.0,11,0.00,,,0.00,296.000000,,2013-03-16 00:52:00,
2013-03-15 18:02:00,93.0,31.0,-100.00,SSW,206,5.0,13.0,11,0.00,,,0.00,296.000000,,2013-03-16 01:02:00,
2013-03-15 18:12:00,93.0,31.0,-100.00,SSW,206,5.0,13.0,11,0.00,,,0.00,296.000000,,2013-03-16 01:12:00,
2013-03-15 18:21:00,93.0,31.0,-100.00,SSW,206,5.0,13.0,11,0.00,,,0.00,296.000000,,2013-03-16 01:21:00,
2013-03-15 18:52:00,91.0,27.0,-100.00,SW,220,6.0,10.0,10,0.00,,,0.00,211.000000,,2013-03-16 01:52:00,
2013-03-15 19:12:00,91.0,27.0,-100.00,SW,220,6.0,10.0,10,0.00,,,0.00,211.000000,,2013-03-16 02:12:00,
2013-03-15 19:22:00,91.0,27.0,-100.00,SW,220,6.0,10.0,10,0.00,,,0.00,211.000000,,2013-03-16 02:22:00,
2013-03-15 19:52:00,86.0,29.0,-100.00,SSW,199,1.0,10.0,13,0.00,,,0.00,5.000000,,2013-03-16 02:52:00,
2013-03-15 20:02:00,86.0,29.0,-100.00,SSW,199,1.0,10.0,13,0.00,,,0.00,5.000000,,2013-03-16 03:02:00,
2013-03-15 20:12:00,86.0,29.0,-100.00,SSW,199,1.0,10.0,13,0.00,,,0.00,5.000000,,2013-03-16 03:12:00,
2013-03-15 20:21:00,86.0,29.0,-100.00,SSW,199,1.0,10.0,13,0.00,,,0.00,5.000000,,2013-03-16 03:21:00,
2013-03-15 20:53:00,81.0,32.0,-100.00,SW,229,0.0,6.0,17,0.00,,,0.00,0.000000,,2013-03-16 03:53:00,
2013-03-15 21:02:00,81.0,32.0,-100.00,SW,229,0.0,6.0,17,0.00,,,0.00,0.000000,,2013-03-16 04:02:00,
2013-03-15 21:12:00,81.0,32.0,-100.00,SW,229,0.0,6.0,17,0.00,,,0.00,0.000000,,2013-03-16 04:12:00,
2013-03-15 21:22:00,81.0,32.0,-100.00,SW,229,0.0,6.0,17,0.00,,,0.00,0.000000,,2013-03-16 04:22:00,
2013-03-15 21:53:00,81.0,36.0,-100.00,SW,225,8.0,12.0,20,0.00,,,0.00,0.000000,,2013-03-16 04:53:00,
2013-03-15 22:02:00,81.0,36.0,-100.00,SW,225,8.0,12.0,20,0.00,,,0.00,0.000000,,2013-03-16 05:02:00,
2013-03-15 22:12:00,81.0,36.0,-100.00,SW,225,8.0,12.0,20,0.00,,,0.00,0.000000,,2013-03-16 05:12:00,
2013-03-15 22:21:00,81.0,36.0,-100.00,SW,225,8.0,12.0,20,0.00,,,0.00,0.000000,,2013-03-16 05:21:00,
2013-03-15 22:53:00,79.0,37.0,-100.00,South,191,6.0,12.0,22,0.00,,,0.00,0.000000,,2013-03-16 05:53:00,
2013-03-15 23:02:00,79.0,37.0,-100.00,South,191,6.0,12.0,22,0.00,,,0.00,0.000000,,2013-03-16 06:02:00,
2013-03-15 23:12:00,79.0,37.0,-100.00,South,191,6.0,12.0,22,0.00,,,0.00,0.000000,,2013-03-16 06:12:00,
2013-03-15 23:21:00,79.0,37.0,-100.00,South,191,6.0,12.0,22,0.00,,,0.00,0.000000,,2013-03-16 06:21:00,
2013-03-15 23:52:00,77.0,36.0,-100.00,WSW,239,6.0,13.0,23,0.00,,,0.00,0.000000,,2013-03-16 06:52:00,